createdAt,value
2022-09-07T07:19:49.077Z,1014.6
2022-09-07T07:24:32.773Z,1014.65
2022-09-07T07:29:27.584Z,1014.61
2022-09-07T07:34:17.102Z,1014.54
2022-09-07T07:44:01.915Z,1014.69
2022-09-07T07:48:54.010Z,1014.78
2022-09-07T07:53:46.662Z,1014.8
2022-09-07T07:58:39.295Z,1014.81
2022-09-07T08:03:32.299Z,1014.78
2022-09-07T08:08:25.015Z,1014.7
2022-09-07T08:13:17.913Z,1014.67
2022-09-07T08:18:10.561Z,1014.73
2022-09-07T08:23:03.015Z,1014.74
2022-09-07T08:27:55.601Z,1014.73
2022-09-07T08:32:48.207Z,1014.71
2022-09-07T08:37:41.143Z,1014.74
2022-09-07T08:42:33.982Z,1014.79
2022-09-07T08:47:27.023Z,1014.76
2022-09-07T08:52:19.511Z,1014.76
2022-09-07T08:57:27.760Z,1014.76
2022-09-07T09:10:54.375Z,1014.79
2022-09-07T09:15:38.395Z,1014.65
2022-09-07T09:20:30.065Z,1014.64
2022-09-07T09:25:22.683Z,1014.6
2022-09-07T09:30:15.590Z,1014.57
2022-09-07T09:35:08.507Z,1014.56
2022-09-07T09:40:02.696Z,1014.56
2022-09-07T09:44:53.553Z,1014.44
2022-09-07T09:49:46.242Z,1014.39
2022-09-07T09:54:38.708Z,1014.25
2022-09-07T10:04:24.908Z,1014.17
2022-09-07T10:09:17.201Z,1014.14
2022-09-07T10:14:11.155Z,1014.12
2022-09-07T10:19:02.513Z,1014.13
2022-09-07T10:23:55.325Z,1014.03
2022-09-07T10:29:11.268Z,1013.95
2022-09-07T10:33:41.103Z,1013.92
2022-09-07T10:38:33.752Z,1013.93
2022-09-07T10:43:26.602Z,1013.89
2022-09-07T10:48:19.552Z,1013.85
2022-09-07T10:53:36.842Z,1013.87
2022-09-07T10:58:04.868Z,1013.85
2022-09-07T11:07:50.223Z,1013.81
2022-09-07T11:17:35.726Z,1013.77
2022-09-07T11:27:21.205Z,1013.74
2022-09-07T11:37:06.677Z,1013.72
2022-09-07T11:46:52.536Z,1013.66
2022-09-07T11:56:37.985Z,1013.61
2022-09-07T12:06:23.773Z,1013.54
2022-09-07T12:16:09.072Z,1013.43
2022-09-07T12:25:54.615Z,1013.41
2022-09-07T12:30:47.421Z,1013.31
2022-09-07T12:35:40.006Z,1013.24
2022-09-07T12:40:32.800Z,1013.23
2022-09-07T12:45:25.634Z,1013.15
2022-09-07T12:50:19.519Z,1013.09
2022-09-07T12:55:27.014Z,1013.14
2022-09-07T13:00:04.530Z,1013.04
2022-09-07T13:04:57.537Z,1013.06
2022-09-07T13:09:50.436Z,1013.11
2022-09-07T13:14:43.724Z,1013.09
2022-09-07T13:19:35.946Z,1013.07
2022-09-07T13:24:46.204Z,1013.01
2022-09-07T13:29:21.436Z,1012.93
2022-09-07T13:34:14.239Z,1012.89
2022-09-07T13:39:07.271Z,1012.8
2022-09-07T13:44:00.290Z,1012.81
2022-09-07T13:48:53.103Z,1012.68
2022-09-07T13:53:45.716Z,1012.65
2022-09-07T13:58:38.523Z,1012.74
2022-09-07T14:03:31.467Z,1012.68
2022-09-07T14:08:23.983Z,1012.64
2022-09-07T14:13:16.713Z,1012.68
2022-09-07T14:18:09.723Z,1012.68
2022-09-07T14:23:02.446Z,1012.67
2022-09-07T14:27:54.740Z,1012.54
2022-09-07T14:32:47.672Z,1012.46
2022-09-07T14:37:40.195Z,1012.41
2022-09-07T14:42:32.969Z,1012.33
2022-09-07T14:47:25.570Z,1012.43
2022-09-07T14:52:18.288Z,1012.46
2022-09-07T14:57:11.135Z,1012.43
2022-09-07T15:02:04.086Z,1012.62
2022-09-07T15:07:03.856Z,1013.29
2022-09-07T15:11:49.320Z,1013.75
2022-09-07T15:16:42.079Z,1013.69
2022-09-07T15:21:34.085Z,1012.93
2022-09-07T15:41:22.219Z,1013.16
2022-09-07T15:45:58.269Z,1013.25
2022-09-07T15:50:50.928Z,1013
2022-09-07T15:55:43.898Z,1012.91
2022-09-07T16:00:36.751Z,1012.84
2022-09-07T16:05:31.297Z,1012.7
2022-09-07T16:10:22.015Z,1012.56
2022-09-07T16:15:14.863Z,1012.54
2022-09-07T16:20:07.559Z,1012.49
2022-09-07T16:25:00.554Z,1012.44
2022-09-07T16:29:53.678Z,1012.46
2022-09-07T16:34:46.341Z,1012.52
2022-09-07T16:39:39.242Z,1012.64
2022-09-07T16:44:31.705Z,1012.73
2022-09-07T16:49:24.239Z,1012.69
2022-09-07T16:54:16.875Z,1012.66
2022-09-07T16:59:09.794Z,1012.7
2022-09-07T17:04:05.485Z,1012.65
2022-09-07T17:08:55.155Z,1012.69
2022-09-07T17:13:48.059Z,1012.74
2022-09-07T17:23:39.408Z,1012.85
2022-09-07T17:28:26.359Z,1012.76
2022-09-07T17:33:19.036Z,1012.77
2022-09-07T17:47:57.071Z,1012.81
2022-09-07T17:52:52.642Z,1012.83
2022-09-07T17:57:42.612Z,1012.89
2022-09-07T18:02:34.960Z,1012.82
2022-09-07T18:07:27.560Z,1012.77
2022-09-07T18:12:20.252Z,1012.88
2022-09-07T18:17:13.172Z,1013
2022-09-07T18:22:05.718Z,1013.14
2022-09-07T18:26:58.512Z,1013.21
2022-09-07T18:31:51.367Z,1013.26
2022-09-07T18:36:44.148Z,1013.26
2022-09-07T18:41:36.626Z,1013.17
2022-09-07T18:46:29.292Z,1013.15
2022-09-07T18:51:23.078Z,1013.11
2022-09-07T18:56:14.558Z,1013.19
2022-09-07T19:01:07.365Z,1013.19
2022-09-07T19:06:00.332Z,1013.25
2022-09-07T19:10:53.387Z,1013.15
2022-09-07T19:15:46.036Z,1013.16
2022-09-07T19:20:38.458Z,1013.16
2022-09-07T19:25:30.998Z,1013.29
2022-09-07T19:30:23.896Z,1013.25
2022-09-07T19:35:17.521Z,1013.1
2022-09-07T19:40:09.130Z,1013.18
2022-09-07T19:45:01.361Z,1013.12
2022-09-07T19:49:54.067Z,1012.99
2022-09-07T19:54:46.996Z,1012.82
2022-09-07T19:59:39.544Z,1012.78
2022-09-07T20:04:32.136Z,1012.86
2022-09-07T20:09:24.837Z,1012.8
2022-09-07T20:14:17.709Z,1012.82
2022-09-07T20:19:10.294Z,1012.78
2022-09-07T20:24:03.006Z,1012.72
2022-09-07T20:29:10.895Z,1012.76
2022-09-07T20:33:48.462Z,1012.82
2022-09-07T20:38:41.068Z,1012.94
2022-09-07T20:43:34.023Z,1012.88
2022-09-07T20:48:26.788Z,1012.84
2022-09-07T20:53:19.530Z,1012.74
2022-09-07T20:58:12.018Z,1012.75
2022-09-07T21:03:04.795Z,1012.67
2022-09-07T21:07:57.465Z,1012.59
2022-09-07T21:12:50.508Z,1012.61
2022-09-07T21:17:43.028Z,1012.65
2022-09-07T21:22:35.863Z,1012.66
2022-09-07T21:27:28.767Z,1012.67
2022-09-07T21:32:21.585Z,1012.67
2022-09-07T21:37:14.346Z,1012.6
2022-09-07T21:42:07.137Z,1012.6
2022-09-07T21:47:00.050Z,1012.6
2022-09-07T21:51:52.675Z,1012.57
2022-09-07T21:56:46.755Z,1012.56
2022-09-07T22:01:38.359Z,1012.51
2022-09-07T22:06:31.110Z,1012.41
2022-09-07T22:11:23.751Z,1012.38
2022-09-07T22:16:16.663Z,1012.28
2022-09-07T22:21:09.249Z,1012.22
2022-09-07T22:26:01.996Z,1012.15
2022-09-07T22:31:00.282Z,1012.22
2022-09-07T22:35:51.780Z,1012.26
2022-09-07T22:40:44.465Z,1012.23
2022-09-07T22:45:37.114Z,1012.25
2022-09-07T22:50:29.806Z,1012.22
2022-09-07T22:55:22.567Z,1012.12
2022-09-07T23:00:15.197Z,1012.17
2022-09-07T23:05:07.919Z,1012.19
2022-09-07T23:10:00.590Z,1012.12
2022-09-07T23:14:53.266Z,1012.11
2022-09-07T23:19:46.316Z,1012.16
2022-09-07T23:24:39.285Z,1012.09
2022-09-07T23:29:31.966Z,1012
2022-09-07T23:34:24.489Z,1012
2022-09-07T23:39:17.189Z,1011.93
2022-09-07T23:44:09.792Z,1011.93
2022-09-07T23:49:02.664Z,1011.9
2022-09-07T23:53:55.337Z,1011.78
2022-09-07T23:58:48.225Z,1011.72
